Time;durP1;ratioP1;P1;durP2;ratioP2;P2;SDS_P1;SDS_P2;PMS_P1;PMS_P2;Temp;Humidity;BMP_temperature;BMP_pressure;BME280_temperature;BME280_humidity;BME280_pressure;Samples;Min_cycle;Max_cycle;Signal;HPM_P1;HPM_P2
2023/07/02 06:39:24;;;;;;;;;15.67;12.00;;;;;19.42;72.22;-19726.53;5170260;27;45561;-83
2023/07/02 06:41:49;;;;;;;;;25.33;20.67;;;;;19.47;71.71;-19727.88;5147441;27;45479;-83
2023/07/02 06:44:15;;;;;;;;;21.67;18.67;;;;;19.90;70.16;-19739.06;5148418;27;45377;-84
2023/07/02 06:46:43;;;;;;;;;24.00;21.00;;;;;20.08;69.61;-19743.88;5153591;27;45585;-82
2023/07/02 06:49:08;;;;;;;;;21.67;19.00;;;;;20.14;69.04;-19745.47;5150938;27;46364;-85
2023/07/02 06:51:34;;;;;;;;;29.67;21.67;;;;;20.21;68.94;-19747.34;5144352;27;45991;-82
2023/07/02 06:53:59;;;;;;;;;24.67;22.00;;;;;20.35;68.63;-19750.94;5147440;27;45567;-83
2023/07/02 06:56:24;;;;;;;;;21.00;18.00;;;;;20.59;67.88;-19757.09;5133324;27;45675;-83
2023/07/02 06:58:52;;;;;;;;;18.33;15.67;;;;;20.64;67.11;-19758.53;5145774;27;46422;-84
2023/07/02 07:01:18;;;;;;;;;19.67;18.67;;;;;20.62;66.92;-19757.88;5145591;27;45513;-83
2023/07/02 07:03:43;;;;;;;;;28.00;20.67;;;;;20.85;66.66;-19764.00;5151302;27;45551;-82
2023/07/02 07:06:09;;;;;;;;;9.00;4.33;;;;;20.84;66.50;-19763.63;5146500;27;45667;-85
2023/07/02 07:08:38;;;;;;;;;25.00;17.33;;;;;20.77;65.71;-19761.88;5150556;27;47126;-82
2023/07/02 07:11:04;;;;;;;;;25.33;17.67;;;;;20.82;65.99;-19763.06;5148358;27;45491;-83
2023/07/02 07:13:29;;;;;;;;;40.00;34.67;;;;;21.03;66.00;-19768.66;5150889;27;45476;-83
2023/07/02 07:15:54;;;;;;;;;27.67;25.67;;;;;20.85;65.49;-19763.88;5151391;27;45491;-83
2023/07/02 07:18:20;;;;;;;;;59.00;45.25;;;;;21.22;65.55;-19773.47;5150018;27;57593;-81
2023/07/02 07:20:45;;;;;;;;;24.33;19.33;;;;;21.23;65.31;-19773.88;5152583;27;45932;-83
2023/07/02 07:23:10;;;;;;;;;27.00;18.67;;;;;21.45;64.82;-19779.59;5149996;27;45739;-80
2023/07/02 07:25:36;;;;;;;;;27.67;20.00;;;;;21.59;64.16;-19783.06;5153811;27;45754;-80
2023/07/02 07:28:01;;;;;;;;;23.00;21.33;;;;;21.61;64.07;-19783.72;5151280;27;46019;-80
2023/07/02 07:30:26;;;;;;;;;26.67;21.00;;;;;21.82;63.95;-19789.03;5151485;27;45414;-82
2023/07/02 07:32:53;;;;;;;;;25.67;19.33;;;;;21.96;63.37;-19792.63;5151819;27;45676;-79
2023/07/02 07:35:20;;;;;;;;;25.33;19.67;;;;;21.89;63.39;-19791.03;5152455;27;45637;-80
2023/07/02 07:37:45;;;;;;;;;23.33;19.33;;;;;22.11;62.54;-19796.63;5151572;27;47457;-79
2023/07/02 07:40:11;;;;;;;;;25.33;19.33;;;;;22.30;62.61;-19801.69;5120279;27;45645;-79
2023/07/02 07:42:37;;;;;;;;;18.33;18.00;;;;;22.23;61.85;-19799.69;5138515;27;45574;-80
2023/07/02 07:45:03;;;;;;;;;23.67;20.67;;;;;22.44;61.06;-19805.28;5137751;27;45592;-80
2023/07/02 07:47:29;;;;;;;;;25.00;19.67;;;;;22.41;61.15;-19804.47;5138937;27;47334;-79
2023/07/02 07:49:54;;;;;;;;;22.33;18.33;;;;;22.63;61.17;-19810.19;5137834;27;45553;-79
2023/07/02 07:52:20;;;;;;;;;18.00;18.00;;;;;22.63;60.90;-19810.19;5134821;27;45567;-79
2023/07/02 07:54:45;;;;;;;;;24.33;17.67;;;;;22.77;59.61;-19813.78;5129291;27;45681;-79
2023/07/02 07:57:11;;;;;;;;;21.00;18.67;;;;;22.62;60.09;-19809.78;5125731;27;46940;-81
2023/07/02 07:59:36;;;;;;;;;45.00;37.67;;;;;22.74;59.27;-19813.13;5137133;27;45772;-91
2023/07/02 08:02:02;;;;;;;;;22.00;19.67;;;;;22.92;59.04;-19817.63;5135097;27;45452;-86
2023/07/02 08:04:27;;;;;;;;;22.33;20.67;;;;;22.69;58.72;-19811.66;5134685;27;46597;-86
2023/07/02 08:06:54;;;;;;;;;38.00;32.67;;;;;22.69;58.81;-19811.66;5132328;27;48028;-84
2023/07/02 08:09:21;;;;;;;;;112.00;101.67;;;;;22.62;58.85;-19809.78;5131300;27;45519;-89
2023/07/02 08:11:46;;;;;;;;;27.67;25.00;;;;;23.14;58.49;-19823.34;5134375;27;45634;-91
2023/07/02 08:14:12;;;;;;;;;25.00;18.67;;;;;;;;5139131;27;45836;-87
2023/07/02 08:16:38;;;;;;;;;23.33;20.00;;;;;23.25;58.37;-19826.28;5138130;27;46337;-90
2023/07/02 08:19:03;;;;;;;;;27.00;20.67;;;;;23.15;57.83;-19823.63;5136544;27;45517;-90
2023/07/02 08:21:28;;;;;;;;;23.33;18.33;;;;;23.13;56.78;-19823.09;5128422;27;45536;-85
2023/07/02 08:23:54;;;;;;;;;52.33;43.00;;;;;23.48;56.62;-19832.09;5136817;27;45570;-85
2023/07/02 08:26:22;;;;;;;;;87.25;79.25;;;;;23.45;56.43;-19831.31;5138034;27;45450;-85
2023/07/02 08:28:47;;;;;;;;;22.33;20.33;;;;;23.60;56.37;-19835.31;5118548;27;45585;-88
2023/07/02 08:31:12;;;;;;;;;27.67;22.67;;;;;23.65;56.39;-19836.50;5133800;27;45863;-86
2023/07/02 08:33:38;;;;;;;;;12.33;10.33;;;;;23.63;56.34;-19835.97;5136941;27;45495;-87
2023/07/02 08:36:03;;;;;;;;;29.00;23.00;;;;;23.41;55.33;-19830.25;5138506;27;45757;-85
2023/07/02 08:38:29;;;;;;;;;22.50;20.50;;;;;23.52;55.04;-19833.16;5138822;27;45493;-85
2023/07/02 08:40:54;;;;;;;;;18.67;16.67;;;;;23.84;54.99;-19841.41;5138035;27;45472;-88
2023/07/02 08:43:21;;;;;;;;;26.00;24.33;;;;;23.93;55.15;-19843.78;5138958;27;45440;-87
2023/07/02 08:45:46;;;;;;;;;19.33;18.33;;;;;23.97;54.92;-19844.97;5135924;27;47302;-87
2023/07/02 08:48:12;;;;;;;;;20.00;17.00;;;;;24.22;54.28;-19851.47;5137692;27;46726;-85
2023/07/02 08:50:38;;;;;;;;;21.33;17.33;;;;;24.41;54.22;-19854.28;5136472;27;45568;-87
2023/07/02 08:53:03;;;;;;;;;25.67;20.00;;;;;24.60;53.27;-19859.31;5139522;27;45792;-89
2023/07/02 08:55:31;;;;;;;;;21.00;18.33;;;;;24.78;53.46;-19863.97;5137732;27;45740;-90
2023/07/02 08:58:00;;;;;;;;;21.33;18.67;;;;;25.16;52.38;-19873.75;5127530;27;45421;-87
2023/07/02 09:00:26;;;;;;;;;21.00;17.00;;;;;25.03;51.47;-19531.88;5135486;27;45323;-92
2023/07/02 09:02:51;;;;;;;;;21.67;17.00;;;;;25.40;50.00;-18863.47;5137038;27;45391;-90
2023/07/02 09:05:17;;;;;;;;;21.33;17.33;;;;;25.33;50.00;-18184.22;5135892;27;48427;-83
2023/07/02 09:07:50;;;;;;;;;20.33;16.67;;;;;25.45;50.43;-17848.13;5137892;27;45427;-82
2023/07/02 09:10:27;;;;;;;;;18.33;17.00;;;;;25.32;49.14;-16489.22;5133815;27;45515;-82
2023/07/02 09:13:03;;;;;;;;;21.67;18.00;;;;;25.18;48.98;-16147.44;5135717;27;45442;-83
2023/07/02 09:15:35;;;;;;;;;21.33;17.33;;;;;25.06;48.69;-15467.34;5135249;27;47194;-84
2023/07/02 09:18:00;;;;;;;;;18.67;16.67;;;;;25.04;48.52;-14449.97;5116562;27;45485;-84
2023/07/02 09:20:32;;;;;;;;;16.33;14.00;;;;;24.80;47.87;-13767.84;5127231;27;45476;-83
2023/07/02 09:22:58;;;;;;;;;20.67;15.67;;;;;24.71;48.80;-13427.50;5137173;27;45510;-84
2023/07/02 09:25:33;;;;;;;;;16.33;16.33;;;;;24.60;49.11;-13086.91;5136377;27;45877;-84
2023/07/02 09:27:59;;;;;;;;;19.67;16.33;;;;;24.49;49.01;-12407.34;5137146;27;45665;-88
2023/07/02 09:30:24;;;;;;;;;25.33;22.33;;;;;24.04;48.09;-12062.34;5131742;27;46116;-93
2023/07/02 09:32:49;;;;;;;;;17.33;16.00;;;;;24.14;49.13;-12063.75;5129384;27;45574;-91
2023/07/02 09:35:26;;;;;;;;;19.33;17.00;;;;;23.94;49.54;-12399.66;5133790;27;48063;-88
2023/07/02 09:37:53;;;;;;;;;21.00;16.67;;;;;24.13;48.51;-12063.53;5133491;27;45695;-86
2023/07/02 09:40:20;;;;;;;;;19.67;19.33;;;;;24.47;49.65;-12407.06;5135724;27;45468;-88
2023/07/02 09:42:52;;;;;;;;;17.67;13.67;;;;;24.47;49.34;-12068.19;5137693;27;45556;-87
2023/07/02 09:45:18;;;;;;;;;17.67;16.00;;;;;24.41;48.86;-11728.44;5134711;27;47636;-85
2023/07/02 09:47:48;;;;;;;;;16.67;13.33;;;;;24.38;48.41;-11389.09;5129465;27;45547;-85
2023/07/02 09:50:15;;;;;;;;;12.00;12.00;;;;;25.05;47.85;-12415.38;5116267;27;45420;-84
2023/07/02 09:52:41;;;;;;;;;16.33;16.33;;;;;25.76;46.60;-12085.72;5132176;27;45548;-84
2023/07/02 09:55:08;;;;;;;;;20.67;17.00;;;;;26.75;45.32;-12439.22;5135640;27;46043;-86
2023/07/02 09:57:34;;;;;;;;;16.50;15.50;;;;;26.87;44.52;-9037.44;5135698;27;45556;-86
2023/07/02 10:00:07;;;;;;;;;16.33;15.33;;;;;26.56;44.65;-6992.22;5114463;27;45420;-86
2023/07/02 10:02:32;;;;;;;;;19.50;14.00;;;;;26.26;44.67;-5288.50;5132999;27;45345;-86
2023/07/02 10:04:57;;;;;;;;;18.00;15.00;;;;;25.36;44.16;-2905.09;5134687;27;46349;-86
2023/07/02 10:07:28;;;;;;;;;16.33;15.33;;;;;25.65;45.31;-2223.97;5134791;27;45726;-84
2023/07/02 10:09:55;;;;;;;;;18.00;14.00;;;;;25.31;44.92;-1203.78;5136369;27;45524;-87
2023/07/02 10:12:23;;;;;;;;;16.67;13.67;;;;;24.84;45.08;-525.19;5130246;27;45787;-86
2023/07/02 10:14:51;;;;;;;;;13.67;11.33;;;;;24.97;46.23;-864.81;5126930;27;46053;-84
2023/07/02 10:17:32;;;;;;;;;15.00;12.67;;;;;24.78;46.19;-525.47;5130108;27;45502;-86
2023/07/02 10:20:07;;;;;;;;;17.67;13.33;;;;;24.00;45.95;150.41;5379196;22;45464;-84
2023/07/02 10:22:45;;;;;;;;;13.00;10.33;;;;;24.63;46.06;494.09;5085650;27;45589;-89
2023/07/02 10:25:10;;;;;;;;;16.67;13.33;;;;;24.60;46.01;493.91;5076209;27;45648;-88
2023/07/02 10:27:37;;;;;;;;;17.67;14.67;;;;;24.77;46.16;-525.53;5075207;28;45808;-91
2023/07/02 10:30:07;;;;;;;;;15.67;13.33;;;;;25.74;45.21;-2904.75;5073567;28;45520;-89
2023/07/02 10:35:15;;;;;;;;;16.00;14.33;;;;;26.50;42.88;505.91;5075447;22;73978;-87
2023/07/02 10:37:41;;;;;;;;;16.00;14.33;;;;;26.42;42.68;3235.22;5061163;28;45501;-89
2023/07/02 10:40:08;;;;;;;;;17.67;14.33;;;;;26.03;42.40;5278.31;5064053;27;45459;-89
2023/07/02 10:42:36;;;;;;;;;14.00;12.67;;;;;26.04;42.41;6985.50;5069549;28;45516;-87
2023/07/02 10:45:01;;;;;;;;;16.33;15.67;;;;;25.95;43.55;7666.88;5057058;27;46206;-81
2023/07/02 10:47:28;;;;;;;;;20.67;20.00;;;;;25.85;43.55;7665.06;5073723;27;45988;-84
2023/07/02 10:49:53;;;;;;;;;16.33;14.33;;;;;25.99;43.11;8009.03;5074338;27;45575;-83
2023/07/02 10:52:18;;;;;;;;;17.67;13.67;;;;;26.08;42.93;6644.72;5062189;27;45457;-82
2023/07/02 10:54:46;;;;;;;;;14.33;13.33;;;;;27.35;41.14;7349.53;5066605;28;48641;-83
2023/07/02 10:57:15;;;;;;;;;15.00;14.00;;;;;27.79;40.50;9754.88;5070940;28;45560;-84
2023/07/02 10:59:47;;;;;;;;;16.00;13.67;;;;;28.03;40.36;14561.81;5067209;28;45485;-83
2023/07/02 11:02:13;;;;;;;;;15.33;15.00;;;;;27.94;40.10;18335.94;5068150;28;45553;-83
2023/07/02 11:04:47;;;;;;;;;13.33;13.33;;;;;28.54;39.92;18356.72;5071902;27;45536;-84
2023/07/02 11:07:25;;;;;;;;;18.00;13.33;;;;;28.59;39.09;24453.19;5073637;27;45382;-84
2023/07/02 11:12:45;;;;;;;;;18.00;13.67;;;;;28.48;37.08;42424.38;5074240;22;45774;-82
2023/07/02 11:15:12;;;;;;;;;18.33;15.67;;;;;28.24;37.09;46617.47;5067686;28;46485;-81
2023/07/02 11:17:40;;;;;;;;;17.67;16.33;;;;;27.94;37.33;49140.88;5070956;28;45440;-81
2023/07/02 11:20:08;;;;;;;;;19.67;16.00;;;;;27.69;38.01;50212.72;5067339;28;45916;-81
2023/07/02 11:22:35;;;;;;;;;18.00;16.67;;;;;27.60;38.01;50583.44;5070629;28;46247;-83
2023/07/02 11:25:14;;;;;;;;;18.00;16.33;;;;;27.60;37.83;51210.44;5074989;28;45462;-84
2023/07/02 11:27:40;;;;;;;;;14.33;14.00;;;;;28.16;38.49;49202.56;5074294;28;45429;-81
2023/07/02 11:30:07;;;;;;;;;12.67;8.33;;;;;28.80;36.42;50231.81;5054032;28;45491;-82
2023/07/02 11:32:51;;;;;;;;;15.00;11.33;;;;;29.13;35.08;54696.34;5070636;28;45571;-82
2023/07/02 11:35:16;;;;;;;;;13.67;13.33;;;;;29.03;34.26;57748.97;5064705;28;47520;-80
2023/07/02 11:37:43;;;;;;;;;12.33;12.33;;;;;28.86;34.70;58839.72;5073678;28;45563;-79
2023/07/02 11:40:09;;;;;;;;;19.00;16.00;;;;;28.75;35.46;59068.50;5068749;28;45532;-79
2023/07/02 11:42:34;;;;;;;;;14.33;14.00;;;;;28.77;35.24;59249.22;5055714;28;47831;-79
2023/07/02 11:44:59;;;;;;;;;22.00;19.00;;;;;29.01;34.47;59526.38;5073134;28;53429;-79
2023/07/02 11:47:27;;;;;;;;;16.00;12.33;;;;;29.62;34.06;59505.34;5066313;28;45443;-80
2023/07/02 11:49:52;;;;;;;;;11.00;9.33;;;;;29.85;33.17;60296.09;5073796;28;45788;-80
2023/07/02 11:52:17;;;;;;;;;15.33;12.00;;;;;30.23;32.54;61379.41;5071676;28;47016;-80
2023/07/02 11:54:43;;;;;;;;;16.67;13.00;;;;;30.73;31.38;62412.31;5070688;28;45610;-80
2023/07/02 11:57:08;;;;;;;;;14.67;12.00;;;;;30.94;30.93;63366.38;5075268;28;45380;-78
2023/07/02 11:59:34;;;;;;;;;11.00;9.67;;;;;30.97;30.78;64250.69;5076745;28;45824;-78
2023/07/02 12:01:59;;;;;;;;;16.00;13.33;;;;;30.71;31.54;64514.91;5075991;28;45583;-77
2023/07/02 12:04:24;;;;;;;;;15.33;15.33;;;;;30.71;31.46;64667.63;5077046;28;46391;-77
2023/07/02 12:06:50;;;;;;;;;12.33;12.33;;;;;30.62;31.94;64840.91;5076676;28;45877;-77
2023/07/02 12:09:15;;;;;;;;;13.67;12.67;;;;;30.43;31.59;65144.22;5074162;28;45463;-78
2023/07/02 12:11:41;;;;;;;;;12.67;10.00;;;;;30.21;31.55;65207.97;5050213;28;45602;-79
2023/07/02 12:14:06;;;;;;;;;14.33;11.67;;;;;30.38;31.94;65299.50;5057658;28;46577;-81
2023/07/02 12:16:41;;;;;;;;;13.00;10.33;;;;;30.16;32.30;65327.75;5067839;28;45803;-91
2023/07/02 12:19:43;;;;;;;;;29.33;27.33;;;;;30.31;31.30;65507.56;5054996;28;45553;-86
2023/07/02 12:22:01;;;;;;;;;15.67;13.33;;;;;29.52;31.36;65701.53;5067202;28;45490;-90
2023/07/02 12:24:26;;;;;;;;;17.33;13.67;;;;;29.77;31.67;65805.44;5048158;28;47274;-82
2023/07/02 12:26:52;;;;;;;;;11.33;10.67;;;;;29.37;31.56;65856.13;5070098;28;45427;-75
2023/07/02 12:29:17;;;;;;;;;14.67;13.00;;;;;29.77;31.51;66030.97;5056986;28;45511;-84
2023/07/02 12:31:42;;;;;;;;;16.67;13.67;;;;;29.67;31.93;66072.53;5057561;28;46146;-85
2023/07/02 12:34:08;;;;;;;;;19.67;18.00;;;;;29.35;31.57;66330.28;5055880;28;46685;-81
2023/07/02 12:36:33;;;;;;;;;15.00;15.00;;;;;29.40;31.56;66401.88;5071885;28;45851;-86
2023/07/02 12:38:59;;;;;;;;;8.33;8.33;;;;;29.30;31.61;66300.66;5074795;28;45462;-87
2023/07/02 12:41:24;;;;;;;;;12.67;10.33;;;;;29.41;32.03;66345.84;5073743;28;45454;-84
2023/07/02 12:43:50;;;;;;;;;15.33;10.67;;;;;29.31;31.94;66356.25;5071361;28;45958;-81
2023/07/02 12:46:15;;;;;;;;;11.00;11.00;;;;;29.43;31.66;66456.47;5055941;28;45906;-80
2023/07/02 12:48:40;;;;;;;;;11.33;10.33;;;;;29.36;31.63;66506.25;5074428;28;45707;-83
2023/07/02 12:51:06;;;;;;;;;12.33;11.00;;;;;29.41;32.00;66454.19;5073896;28;45729;-78
2023/07/02 12:53:31;;;;;;;;;10.33;9.00;;;;;29.39;31.51;66585.91;5069952;28;45465;-80
2023/07/02 12:55:56;;;;;;;;;11.67;10.67;;;;;29.19;31.96;66674.69;5072663;28;49538;-79
2023/07/02 12:58:21;;;;;;;;;11.00;11.00;;;;;29.31;31.79;66627.94;5071965;28;45540;-78
2023/07/02 13:00:47;;;;;;;;;11.33;8.33;;;;;29.15;30.75;66822.53;5068982;28;45398;-80
2023/07/02 13:03:13;;;;;;;;;9.67;9.67;;;;;29.16;31.49;66794.31;5072307;28;46403;-79
2023/07/02 13:05:39;;;;;;;;;11.00;11.00;;;;;29.02;31.20;66955.72;5072323;28;45472;-84
2023/07/02 13:08:05;;;;;;;;;12.33;11.33;;;;;28.74;31.49;66999.78;5074867;28;45408;-84
2023/07/02 13:10:32;;;;;;;;;9.67;9.67;;;;;28.92;32.56;66826.69;5058927;28;45625;-83
2023/07/02 13:12:57;;;;;;;;;12.33;11.00;;;;;28.96;31.93;66934.66;5067538;28;47268;-93
2023/07/02 13:15:22;;;;;;;;;9.00;8.00;;;;;28.99;31.52;66946.84;5070288;28;45454;-83
2023/07/02 13:17:48;;;;;;;;;10.67;8.33;;;;;29.03;31.96;66926.94;5075374;28;45522;-81
2023/07/02 13:20:13;;;;;;;;;7.67;7.67;;;;;28.99;31.81;66938.13;5055142;28;45527;-88
2023/07/02 13:22:39;;;;;;;;;7.33;7.33;;;;;29.13;31.34;66986.31;5074263;28;46057;-86
2023/07/02 13:25:05;;;;;;;;;11.33;9.33;;;;;28.82;31.29;66998.66;5071175;28;45593;-87
2023/07/02 13:27:30;;;;;;;;;9.33;8.00;;;;;29.02;31.80;66936.13;5072143;28;45903;-81
2023/07/02 13:29:56;;;;;;;;;10.67;8.33;;;;;29.09;31.96;66946.88;5055672;28;45451;-83
2023/07/02 13:32:21;;;;;;;;;13.00;9.00;;;;;29.20;31.79;66883.28;5074963;28;46007;-83
2023/07/02 13:34:47;;;;;;;;;11.33;11.00;;;;;29.27;31.68;66945.19;5074940;28;45499;-91
2023/07/02 13:37:14;;;;;;;;;12.00;11.00;;;;;29.25;30.88;67076.31;5074567;28;45746;-89
2023/07/02 13:39:39;;;;;;;;;10.67;10.00;;;;;29.22;30.68;67076.16;5076747;28;45473;-91
2023/07/02 13:42:05;;;;;;;;;7.67;6.67;;;;;29.16;31.37;67019.69;5076199;28;45703;-88
2023/07/02 13:44:32;;;;;;;;;8.00;7.33;;;;;29.14;31.73;67033.72;5074485;28;45443;-90
2023/07/02 13:46:57;;;;;;;;;9.00;7.67;;;;;29.07;32.56;67066.47;5074974;28;45768;-88
2023/07/02 13:49:23;;;;;;;;;8.67;8.33;;;;;28.76;32.68;66989.03;5074592;28;45722;-93
2023/07/02 13:51:50;;;;;;;;;12.67;9.00;;;;;28.85;32.21;67145.75;5068158;28;47223;-93
2023/07/02 13:54:16;;;;;;;;;11.33;9.00;;;;;28.89;32.08;67153.03;5042182;28;45591;-91
2023/07/02 13:56:41;;;;;;;;;9.00;5.00;;;;;28.87;32.81;67071.84;5073269;28;45434;-85
2023/07/02 13:59:07;;;;;;;;;7.67;7.67;;;;;28.93;33.30;66975.34;5073184;28;45498;-88
2023/07/02 14:01:33;;;;;;;;;16.00;9.33;;;;;28.92;32.54;67036.22;5033833;28;47839;-87
2023/07/02 14:03:59;;;;;;;;;13.33;9.33;;;;;29.04;32.23;67113.16;5070540;28;45537;-88
2023/07/02 14:06:25;;;;;;;;;11.00;9.33;;;;;29.10;32.21;67094.44;5059177;28;45324;-88
2023/07/02 14:08:50;;;;;;;;;54.00;44.00;;;;;29.12;31.72;67110.34;5056680;28;45582;-85
2023/07/02 14:11:16;;;;;;;;;8.33;8.33;;;;;28.93;32.29;67059.13;5056131;28;47429;-85
2023/07/02 14:13:41;;;;;;;;;5.00;3.67;;;;;29.23;31.94;67074.56;5056030;28;46250;-84
2023/07/02 14:16:07;;;;;;;;;9.33;9.33;;;;;29.05;31.84;67215.00;5067253;28;45424;-89
2023/07/02 14:18:32;;;;;;;;;10.00;8.67;;;;;28.97;32.26;67126.31;5134802;22;45568;-86
2023/07/02 14:21:08;;;;;;;;;9.00;8.00;;;;;28.41;31.70;67120.69;5075003;28;45623;-86
2023/07/02 14:23:36;;;;;;;;;9.33;8.00;;;;;28.12;31.53;67183.59;5039954;28;45704;-84
2023/07/02 14:26:01;;;;;;;;;3.67;2.33;;;;;28.68;31.97;67281.22;5067946;28;45427;-83
2023/07/02 14:28:29;;;;;;;;;8.67;7.67;;;;;28.86;31.12;67301.41;5062453;28;45820;-83
2023/07/02 14:31:03;;;;;;;;;12.67;8.67;;;;;28.54;31.28;67385.91;5074682;28;46123;-83
2023/07/02 14:33:30;;;;;;;;;10.00;8.67;;;;;28.82;31.19;67401.34;5074366;28;45478;-83
2023/07/02 14:35:56;;;;;;;;;10.00;7.00;;;;;28.81;30.98;67443.16;5073011;28;45446;-89
2023/07/02 14:38:24;;;;;;;;;9.33;8.00;;;;;28.42;31.44;67426.38;5075269;28;45348;-87
2023/07/02 14:44:30;;;;;;;;;9.67;9.00;;;;;28.76;31.88;67459.13;5380779;22;46125;-85
2023/07/02 14:46:55;;;;;;;;;8.00;8.00;;;;;28.15;31.76;67396.34;5185323;22;45882;-85
2023/07/02 14:49:26;;;;;;;;;7.33;5.67;;;;;28.55;31.85;67378.88;5068734;28;45562;-86
2023/07/02 14:51:54;;;;;;;;;9.33;8.00;;;;;28.00;31.92;67335.53;5055680;28;48256;-89
2023/07/02 14:54:19;;;;;;;;;3.67;3.67;;;;;28.57;31.78;67416.00;5067718;28;45563;-89
2023/07/02 14:56:54;;;;;;;;;8.67;7.67;;;;;28.01;31.23;67434.53;5068560;28;45940;-85
2023/07/02 14:59:19;;;;;;;;;8.00;8.00;;;;;27.84;31.56;67388.28;5077322;28;45423;-89
2023/07/02 15:01:44;;;;;;;;;7.67;7.00;;;;;27.96;31.18;67551.03;5076219;27;48018;-85
2023/07/02 15:04:10;;;;;;;;;10.00;7.00;;;;;28.24;30.98;67571.41;5076696;28;45569;-90
2023/07/02 15:09:57;;;;;;;;;10.67;8.33;;;;;28.11;31.47;67573.81;5073107;28;45709;-88
2023/07/02 15:12:45;;;;;;;;;8.33;8.00;;;;;27.80;32.05;67524.88;5077437;28;45451;-89
2023/07/02 15:15:22;;;;;;;;;;;;;;;;;;;;;
2023/07/02 15:18:07;;;;;;;;;9.67;9.67;;;;;28.08;32.15;67610.56;5069162;28;67691;-87
2023/07/02 15:20:33;;;;;;;;;9.00;7.33;;;;;28.35;32.40;67609.22;5080614;22;45494;-81
2023/07/02 15:22:58;;;;;;;;;9.00;7.33;;;;;28.29;32.15;67637.63;5092271;27;45830;-83
2023/07/02 15:25:24;;;;;;;;;9.33;7.67;;;;;28.34;31.86;67716.25;5097019;27;45354;-84
2023/07/02 15:27:49;;;;;;;;;9.00;8.00;;;;;28.30;31.98;67684.41;5097355;27;45558;-83
2023/07/02 15:30:15;;;;;;;;;7.00;7.00;;;;;28.11;31.91;67692.84;5092902;27;45517;-83
2023/07/02 15:32:40;;;;;;;;;8.00;8.00;;;;;28.28;32.11;67731.03;5097451;27;45406;-83
2023/07/02 15:35:06;;;;;;;;;6.00;6.00;;;;;28.13;31.75;67684.88;5087642;27;47322;-83
2023/07/02 15:37:31;;;;;;;;;9.67;8.67;;;;;28.20;32.06;67720.19;5097508;27;45413;-83
2023/07/02 15:39:56;;;;;;;;;9.33;8.00;;;;;27.89;31.74;67815.22;5088593;27;45861;-84
2023/07/02 15:42:22;;;;;;;;;8.67;7.33;;;;;28.05;32.04;67824.50;5095899;27;47675;-84
2023/07/02 15:44:47;;;;;;;;;7.67;7.67;;;;;27.94;31.92;67806.84;5090483;27;45453;-82
2023/07/02 15:47:13;;;;;;;;;10.67;8.67;;;;;27.81;32.33;67797.16;5095653;27;45386;-84
2023/07/02 15:49:39;;;;;;;;;8.33;8.33;;;;;27.82;32.13;67757.56;5084419;27;45508;-84
2023/07/02 15:52:06;;;;;;;;;10.33;8.67;;;;;27.78;32.20;67845.84;5096592;27;46435;-84
2023/07/02 15:54:31;;;;;;;;;9.00;9.00;;;;;27.77;31.80;67845.28;5091304;27;45465;-83
2023/07/02 15:56:58;;;;;;;;;10.00;8.67;;;;;27.88;31.58;67862.94;5091586;27;45513;-82
2023/07/02 15:59:23;;;;;;;;;11.00;8.67;;;;;27.60;32.26;67854.78;5081799;27;45741;-83
2023/07/02 16:01:51;;;;;;;;;10.33;9.00;;;;;27.51;32.57;67850.94;5095413;27;45678;-87
2023/07/02 16:04:17;;;;;;;;;8.00;8.00;;;;;27.65;32.57;67852.47;5093519;27;45594;-85
2023/07/02 16:06:43;;;;;;;;;9.00;7.00;;;;;27.69;32.53;67835.38;5097182;27;45521;-86
2023/07/02 16:09:09;;;;;;;;;9.00;9.00;;;;;27.69;33.18;67765.34;5092715;27;45541;-85
2023/07/02 16:11:41;;;;;;;;;13.33;10.00;;;;;27.67;33.49;67822.78;5097410;27;46286;-86
2023/07/02 16:14:10;;;;;;;;;10.67;8.00;;;;;27.62;32.94;67800.09;5095130;27;45515;-86
2023/07/02 16:16:42;;;;;;;;;8.33;8.33;;;;;27.48;32.92;67871.84;5078996;27;45493;-85
2023/07/02 16:19:09;;;;;;;;;11.50;9.50;;;;;27.23;32.94;67913.94;5095710;27;45495;-86
2023/07/02 16:21:36;;;;;;;;;9.67;8.67;;;;;27.31;33.00;67855.38;5081109;27;46492;-85
2023/07/02 16:24:03;;;;;;;;;15.00;9.00;;;;;27.35;33.25;67865.47;5097140;27;45495;-84
2023/07/02 16:26:28;;;;;;;;;11.00;9.67;;;;;27.19;33.06;67911.97;5097218;27;45537;-84
2023/07/02 16:28:53;;;;;;;;;14.00;9.00;;;;;27.07;33.38;67868.13;5095859;27;45663;-83
2023/07/02 16:31:19;;;;;;;;;11.33;8.67;;;;;27.01;33.47;67834.56;5096599;27;46272;-84
2023/07/02 16:33:44;;;;;;;;;9.33;7.33;;;;;27.17;33.50;67921.06;5096542;27;45480;-84
2023/07/02 16:36:11;;;;;;;;;10.33;9.67;;;;;27.32;33.28;67912.97;5088142;27;45423;-84
2023/07/02 16:38:37;;;;;;;;;10.33;8.67;;;;;27.30;33.77;67867.78;5077066;27;45592;-84
2023/07/02 16:41:05;;;;;;;;;9.33;8.00;;;;;27.21;33.52;67873.03;5093306;27;46004;-84
2023/07/02 16:43:31;;;;;;;;;10.00;10.00;;;;;27.19;34.05;67919.53;5096006;27;45994;-84
2023/07/02 16:45:57;;;;;;;;;9.00;8.00;;;;;26.84;34.05;67793.69;5097040;27;45504;-84
2023/07/02 16:48:23;;;;;;;;;9.00;9.00;;;;;27.03;34.02;67883.03;5087406;27;45455;-84
2023/07/02 16:50:56;;;;;;;;;10.67;9.00;;;;;27.05;33.82;67865.81;5090787;27;46413;-84
2023/07/02 16:53:21;;;;;;;;;8.00;7.33;;;;;27.05;34.22;67836.53;5096229;27;45380;-84
2023/07/02 16:55:47;;;;;;;;;11.33;7.00;;;;;26.71;34.08;67857.19;5086852;27;45846;-84
2023/07/02 16:58:12;;;;;;;;;8.00;7.00;;;;;26.98;34.29;67814.81;5087429;27;45395;-85
2023/07/02 17:00:37;;;;;;;;;10.33;9.00;;;;;27.04;34.59;67826.63;5088762;27;45409;-84
2023/07/02 17:03:03;;;;;;;;;7.33;7.33;;;;;26.79;34.14;67812.28;5096211;27;45556;-84
2023/07/02 17:05:29;;;;;;;;;13.33;11.00;;;;;26.84;34.24;67956.44;5077777;27;46036;-84
2023/07/02 17:07:54;;;;;;;;;8.00;8.00;;;;;26.82;34.76;67848.31;5096249;27;45676;-84
2023/07/02 17:10:19;;;;;;;;;9.33;7.33;;;;;26.83;34.69;67803.38;5094388;27;45552;-84
2023/07/02 17:12:45;;;;;;;;;10.33;8.00;;;;;26.62;34.66;67822.31;5095930;27;45392;-84
2023/07/02 17:15:10;;;;;;;;;7.00;7.00;;;;;26.63;35.28;67839.75;5094705;27;51415;-84
2023/07/02 17:17:35;;;;;;;;;8.33;6.33;;;;;26.73;35.61;67810.72;5082231;27;45411;-84
2023/07/02 17:20:02;;;;;;;;;9.00;9.00;;;;;26.72;35.46;67774.88;5097407;27;45615;-84
2023/07/02 17:22:29;;;;;;;;;12.00;10.00;;;;;26.67;34.91;67831.44;5084705;27;45754;-84
2023/07/02 17:24:56;;;;;;;;;9.00;6.00;;;;;26.62;35.45;67863.00;5089792;27;45606;-84
2023/07/02 17:27:27;;;;;;;;;9.67;7.00;;;;;26.58;35.36;67755.31;5096045;27;45541;-84
2023/07/02 17:29:55;;;;;;;;;11.67;8.00;;;;;26.45;35.46;67754.28;5086976;27;45826;-83
2023/07/02 17:32:22;;;;;;;;;6.00;5.00;;;;;26.57;36.04;67800.22;5081586;27;45522;-83
2023/07/02 17:34:48;;;;;;;;;25.33;21.67;;;;;26.27;36.15;67687.84;5087159;27;45601;-83
2023/07/02 17:37:16;;;;;;;;;16.67;15.00;;;;;26.62;35.57;67755.13;5094174;27;45758;-82
2023/07/02 17:39:43;;;;;;;;;5.67;4.67;;;;;26.54;36.02;67718.69;5095251;27;45522;-83
2023/07/02 17:42:08;;;;;;;;;9.67;9.67;;;;;26.62;35.92;67728.00;5067945;22;45664;-83
2023/07/02 17:44:37;;;;;;;;;10.00;8.33;;;;;26.60;36.34;67714.81;5022380;28;45444;-83
2023/07/02 17:47:06;;;;;;;;;10.67;9.33;;;;;26.63;36.08;67661.34;5015456;28;45620;-82
2023/07/02 17:49:34;;;;;;;;;9.00;8.67;;;;;26.59;35.82;67707.66;5030569;28;45709;-83
2023/07/02 17:51:59;;;;;;;;;10.33;8.67;;;;;26.24;36.28;67676.25;5041736;28;45561;-82
2023/07/02 17:54:38;;;;;;;;;8.00;8.00;;;;;26.45;36.49;67641.00;5035003;28;45411;-83
2023/07/02 17:57:07;;;;;;;;;9.33;6.67;;;;;26.22;36.24;67673.91;5034907;28;45530;-82
2023/07/02 17:59:33;;;;;;;;;8.00;6.00;;;;;26.49;36.12;67715.56;5035121;28;47341;-83
2023/07/02 18:02:00;;;;;;;;;8.67;6.33;;;;;25.99;36.20;67664.63;5034803;28;45447;-83
2023/07/02 18:04:53;;;;;;;;;15.67;13.33;;;;;26.39;36.56;67682.25;5039771;28;45544;-84
2023/07/02 18:07:21;;;;;;;;;8.00;7.00;;;;;25.71;36.50;67592.03;5039760;28;45974;-84
2023/07/02 18:16:19;;;;;;;;;6.33;6.33;;;;;25.93;35.87;67624.56;5048827;28;45523;-82
2023/07/02 18:19:03;;;;;;;;;11.33;8.67;;;;;25.99;36.41;67640.22;5054200;28;45438;-82